createdAt,value
2023-04-18T00:01:58.161Z,13.99
2023-04-18T00:04:26.201Z,13.92
2023-04-18T00:06:54.025Z,13.97
2023-04-18T00:09:21.623Z,14.06
2023-04-18T00:11:49.327Z,14.14
2023-04-18T00:14:17.126Z,13.99
2023-04-18T00:16:45.990Z,14.05
2023-04-18T00:19:14.359Z,14.02
2023-04-18T00:21:44.909Z,13.94
2023-04-18T00:24:12.957Z,13.79
2023-04-18T00:26:40.828Z,13.82
2023-04-18T00:29:09.099Z,13.97
2023-04-18T00:31:37.300Z,13.73
2023-04-18T00:34:06.447Z,13.82
2023-04-18T00:36:34.161Z,13.89
2023-04-18T00:39:01.816Z,13.79
2023-04-18T00:41:30.703Z,13.75
2023-04-18T00:43:58.452Z,13.66
2023-04-18T00:46:26.126Z,13.77
2023-04-18T00:48:54.459Z,13.50
2023-04-18T00:51:22.537Z,13.80
2023-04-18T00:53:51.444Z,13.92
2023-04-18T00:56:19.606Z,13.95
2023-04-18T00:58:47.427Z,14.12
2023-04-18T01:01:15.198Z,13.94
2023-04-18T01:03:45.191Z,14.04
2023-04-18T01:06:16.050Z,13.88
2023-04-18T01:08:45.037Z,13.94
2023-04-18T01:11:12.636Z,13.90
2023-04-18T01:13:40.299Z,13.97
2023-04-18T01:16:08.200Z,13.99
2023-04-18T01:18:37.249Z,14.15
2023-04-18T01:21:06.526Z,14.03
2023-04-18T01:23:34.218Z,14.05
2023-04-18T01:26:01.939Z,13.92
2023-04-18T01:28:29.967Z,13.83
2023-04-18T01:30:57.619Z,13.74
2023-04-18T01:33:25.284Z,13.80
2023-04-18T01:35:53.063Z,13.98
2023-04-18T01:38:21.098Z,13.82
2023-04-18T01:40:49.361Z,13.82
2023-04-18T01:43:17.217Z,13.78
2023-04-18T01:45:45.569Z,13.74
2023-04-18T01:48:13.200Z,13.64
2023-04-18T01:50:42.892Z,13.55
2023-04-18T01:53:11.548Z,13.94
2023-04-18T01:55:41.783Z,13.72
2023-04-18T01:58:12.049Z,13.80
2023-04-18T02:00:39.708Z,13.88
2023-04-18T02:03:07.597Z,13.82
2023-04-18T02:05:37.604Z,13.84
2023-04-18T02:08:07.106Z,13.72
2023-04-18T02:10:34.724Z,13.72
2023-04-18T02:13:02.607Z,13.69
2023-04-18T02:15:31.076Z,13.82
2023-04-18T02:18:00.110Z,13.79
2023-04-18T02:20:33.727Z,13.77
2023-04-18T02:23:03.317Z,13.80
2023-04-18T02:25:31.370Z,13.79
2023-04-18T02:27:59.104Z,13.69
2023-04-18T02:30:28.003Z,13.60
2023-04-18T02:32:59.292Z,13.67
2023-04-18T02:35:27.898Z,13.61
2023-04-18T02:37:55.618Z,13.53
2023-04-18T02:40:23.589Z,13.43
2023-04-18T02:42:51.449Z,13.59
2023-04-18T02:45:19.510Z,13.78
2023-04-18T02:47:55.212Z,13.87
2023-04-18T02:50:25.406Z,14.02
2023-04-18T02:52:56.252Z,14.05
2023-04-18T02:55:32.268Z,14.11
2023-04-18T02:58:01.630Z,14.14
2023-04-18T03:00:54.568Z,14.17
2023-04-18T03:03:42.561Z,14.16
2023-04-18T03:06:42.231Z,14.09
2023-04-18T03:09:10.189Z,14.06
2023-04-18T03:11:43.554Z,14.14
2023-04-18T03:14:11.687Z,14.25
2023-04-18T03:16:53.846Z,14.35
2023-04-18T03:19:26.497Z,14.29
2023-04-18T03:21:56.254Z,14.14
2023-04-18T03:24:23.974Z,14.15
2023-04-18T03:26:54.529Z,14.30
2023-04-18T03:29:26.085Z,14.06
2023-04-18T03:31:54.198Z,13.99
2023-04-18T03:34:22.364Z,14.19
2023-04-18T03:36:51.055Z,14.13
2023-04-18T03:39:18.859Z,14.18
2023-04-18T03:41:47.649Z,14.05
2023-04-18T03:44:15.837Z,13.94
2023-04-18T03:46:44.354Z,14.07
2023-04-18T03:49:12.779Z,13.94
2023-04-18T03:51:48.055Z,13.90
2023-04-18T03:54:16.971Z,13.93
2023-04-18T03:56:45.346Z,14.04
2023-04-18T03:59:14.270Z,14.02
2023-04-18T04:01:45.758Z,13.76
2023-04-18T04:04:15.665Z,13.85
2023-04-18T04:06:43.942Z,13.90
2023-04-18T04:09:11.899Z,13.99
2023-04-18T04:11:40.085Z,13.94
2023-04-18T04:14:10.688Z,14.03
2023-04-18T04:16:43.462Z,13.94
2023-04-18T04:19:13.632Z,14.08
2023-04-18T04:21:48.817Z,14.08
2023-04-18T04:24:17.758Z,13.99
2023-04-18T04:26:50.983Z,13.91
2023-04-18T04:29:23.871Z,13.82
2023-04-18T04:31:52.875Z,13.95
2023-04-18T04:34:29.636Z,13.92
2023-04-18T04:36:57.443Z,13.80
2023-04-18T04:39:29.690Z,13.84
2023-04-18T04:42:13.552Z,13.95
2023-04-18T04:44:53.751Z,13.95
2023-04-18T04:47:22.696Z,14.04
2023-04-18T04:49:50.268Z,14.08
2023-04-18T04:52:18.344Z,14.14
2023-04-18T04:54:46.728Z,14.11
2023-04-18T04:57:17.014Z,14.43
2023-04-18T04:59:45.747Z,14.25
2023-04-18T05:02:13.602Z,14.24
2023-04-18T05:04:42.027Z,14.25
2023-04-18T05:07:09.554Z,14.43
2023-04-18T05:09:37.021Z,14.33
2023-04-18T05:12:05.062Z,14.34
2023-04-18T05:14:33.570Z,14.31
2023-04-18T05:17:04.397Z,14.30
2023-04-18T05:19:32.209Z,14.57
2023-04-18T05:21:59.808Z,14.77
2023-04-18T05:24:31.590Z,14.84
2023-04-18T05:26:59.182Z,15.10
2023-04-18T05:29:26.996Z,15.13
2023-04-18T05:31:54.970Z,14.65
2023-04-18T05:34:22.930Z,14.70
2023-04-18T05:36:50.620Z,14.88
2023-04-18T05:39:18.194Z,14.83
2023-04-18T05:41:46.006Z,14.93
2023-04-18T05:44:17.415Z,14.84
2023-04-18T05:46:45.191Z,14.90
2023-04-18T05:49:13.141Z,14.86
2023-04-18T05:51:40.997Z,14.99
2023-04-18T05:54:08.664Z,15.03
2023-04-18T05:56:36.829Z,15.22
2023-04-18T05:59:04.452Z,15.10
2023-04-18T06:01:32.617Z,15.22
2023-04-18T06:04:00.742Z,15.25
2023-04-18T06:06:28.621Z,15.30
2023-04-18T06:08:56.527Z,15.40
2023-04-18T06:11:24.098Z,15.58
2023-04-18T06:13:51.690Z,15.52
2023-04-18T06:16:19.499Z,15.64
2023-04-18T06:18:47.108Z,15.83
2023-04-18T06:21:14.679Z,16.01
2023-04-18T06:23:42.325Z,16.18
2023-04-18T06:26:10.041Z,16.43
2023-04-18T06:28:37.856Z,16.67
2023-04-18T06:31:05.672Z,16.72
2023-04-18T06:33:33.565Z,16.88
2023-04-18T06:36:01.367Z,16.83
2023-04-18T06:38:29.326Z,16.75
2023-04-18T06:40:56.971Z,16.71
2023-04-18T06:43:24.593Z,16.82
2023-04-18T06:45:52.235Z,16.82
2023-04-18T06:48:20.016Z,16.97
2023-04-18T06:50:47.640Z,17.19
2023-04-18T06:53:15.628Z,17.63
2023-04-18T06:55:43.482Z,17.90
2023-04-18T06:58:28.194Z,17.70
2023-04-18T07:00:56.136Z,18.08
2023-04-18T07:03:24.122Z,18.16
2023-04-18T07:05:51.962Z,18.46
2023-04-18T07:08:19.803Z,18.80
2023-04-18T07:10:47.591Z,19.11
2023-04-18T07:13:15.558Z,19.43
2023-04-18T07:15:43.232Z,19.33
2023-04-18T07:18:11.059Z,19.81
2023-04-18T07:20:39.057Z,19.80
2023-04-18T07:23:07.032Z,20.16
2023-04-18T07:25:34.822Z,20.05
2023-04-18T07:28:02.906Z,19.51
2023-04-18T07:30:30.507Z,19.88
2023-04-18T07:32:58.471Z,20.14
2023-04-18T07:35:26.371Z,19.79
2023-04-18T07:37:54.625Z,19.72
2023-04-18T07:40:22.395Z,19.63
2023-04-18T07:42:50.019Z,19.87
2023-04-18T07:45:17.905Z,19.92
2023-04-18T07:47:45.621Z,19.84
2023-04-18T07:50:13.491Z,19.39
2023-04-18T07:52:41.630Z,19.31
2023-04-18T07:55:09.490Z,19.65
2023-04-18T07:57:37.281Z,19.51
2023-04-18T08:00:06.499Z,19.66
2023-04-18T08:02:41.827Z,19.52
2023-04-18T08:05:10.462Z,19.52
2023-04-18T08:07:38.845Z,19.39
2023-04-18T08:10:07.205Z,19.32
2023-04-18T08:12:36.626Z,19.58
2023-04-18T08:15:05.107Z,19.37
2023-04-18T08:17:33.269Z,19.69
2023-04-18T08:20:04.800Z,19.30
2023-04-18T08:22:32.654Z,19.67
2023-04-18T08:25:05.414Z,19.75
2023-04-18T08:27:33.806Z,19.50
2023-04-18T08:30:04.027Z,19.51
2023-04-18T08:32:34.673Z,19.84
2023-04-18T08:35:04.025Z,19.99
2023-04-18T08:37:32.689Z,19.90
2023-04-18T08:40:00.442Z,19.57
2023-04-18T08:42:28.001Z,19.98
2023-04-18T08:44:56.173Z,20.36
2023-04-18T08:47:23.975Z,20.73
2023-04-18T08:49:52.353Z,20.81
2023-04-18T08:52:21.728Z,21.23
2023-04-18T08:54:51.081Z,20.88
2023-04-18T08:57:27.274Z,20.83
2023-04-18T08:59:55.604Z,20.98
2023-04-18T09:02:39.269Z,20.81
2023-04-18T09:05:21.510Z,20.90
2023-04-18T09:07:51.510Z,20.94
2023-04-18T09:10:33.414Z,21.59
2023-04-18T09:13:05.945Z,21.97
2023-04-18T09:15:34.487Z,21.45
2023-04-18T09:18:03.354Z,21.48
2023-04-18T09:20:41.497Z,21.68
2023-04-18T09:23:16.403Z,21.99
2023-04-18T09:25:49.003Z,22.10
2023-04-18T09:28:33.812Z,22.28
2023-04-18T09:31:11.994Z,22.13
2023-04-18T09:33:44.816Z,21.93
2023-04-18T09:36:32.515Z,22.33
2023-04-18T09:39:00.532Z,22.28
2023-04-18T09:41:30.612Z,21.93
2023-04-18T09:44:15.107Z,22.26
2023-04-18T09:46:47.143Z,22.09
2023-04-18T09:49:16.923Z,21.47
2023-04-18T09:51:46.288Z,21.53
2023-04-18T09:54:18.258Z,21.16
2023-04-18T09:56:48.063Z,21.42
2023-04-18T09:59:25.035Z,21.77
2023-04-18T10:01:53.356Z,21.73
2023-04-18T10:04:21.486Z,21.30
2023-04-18T10:06:49.976Z,21.21
2023-04-18T10:09:18.539Z,21.13
2023-04-18T10:11:49.426Z,21.71
2023-04-18T10:14:17.780Z,21.89
2023-04-18T10:16:49.291Z,22.17
2023-04-18T10:19:26.812Z,22.45
2023-04-18T10:21:59.632Z,22.67
2023-04-18T10:24:49.926Z,22.73
2023-04-18T10:27:18.996Z,22.38
2023-04-18T10:29:48.486Z,22.42
2023-04-18T10:32:17.770Z,22.76
2023-04-18T10:34:50.430Z,23.18
2023-04-18T10:37:19.060Z,22.88
2023-04-18T10:40:02.840Z,22.82
2023-04-18T10:42:45.897Z,23.32
2023-04-18T10:45:20.355Z,23.88
2023-04-18T10:47:48.151Z,23.41
2023-04-18T10:50:16.124Z,23.73
2023-04-18T10:52:43.909Z,23.55
2023-04-18T10:55:18.678Z,23.28
2023-04-18T10:57:50.402Z,22.81
2023-04-18T11:03:11.646Z,22.28
2023-04-18T11:05:39.454Z,22.45
2023-04-18T11:08:21.937Z,22.50
2023-04-18T11:11:01.099Z,23.11
2023-04-18T11:13:29.660Z,23.02
2023-04-18T11:15:57.316Z,23.38
2023-04-18T11:18:24.776Z,23.12
2023-04-18T11:20:52.436Z,23.11
2023-04-18T11:23:23.128Z,23.61
2023-04-18T11:25:56.718Z,23.01
2023-04-18T11:28:27.432Z,23.27
2023-04-18T11:31:00.359Z,23.19
2023-04-18T11:33:28.462Z,23.48
2023-04-18T11:35:58.866Z,23.74
2023-04-18T11:38:30.851Z,23.74
2023-04-18T11:40:58.470Z,23.54
2023-04-18T11:43:26.334Z,23.59
2023-04-18T11:45:55.103Z,23.25
2023-04-18T11:48:23.151Z,23.47
2023-04-18T11:50:50.617Z,23.37
2023-04-18T11:53:33.792Z,23.55
2023-04-18T11:56:03.594Z,23.47
2023-04-18T11:58:33.120Z,23.30
2023-04-18T12:01:18.777Z,23.61
2023-04-18T12:04:02.995Z,24.37
2023-04-18T12:07:00.007Z,24.11
2023-04-18T12:09:27.734Z,24.45
2023-04-18T12:12:02.911Z,24.34
2023-04-18T12:14:31.010Z,23.96
2023-04-18T12:16:58.449Z,23.83
2023-04-18T12:19:27.696Z,24.08
2023-04-18T12:22:03.315Z,24.05
2023-04-18T12:24:32.324Z,23.89
2023-04-18T12:27:00.191Z,24.37
2023-04-18T12:29:28.628Z,23.91
2023-04-18T12:31:56.162Z,24.25
2023-04-18T12:34:26.214Z,24.52
2023-04-18T12:36:54.375Z,24.42
2023-04-18T12:39:23.107Z,24.24
2023-04-18T12:41:50.544Z,24.30
2023-04-18T12:44:18.265Z,24.48
2023-04-18T12:46:46.947Z,24.73
2023-04-18T12:49:15.521Z,24.43
2023-04-18T12:51:43.666Z,24.28
2023-04-18T12:54:11.619Z,24.47
2023-04-18T12:56:39.334Z,24.80
2023-04-18T12:59:06.929Z,25.12
2023-04-18T13:01:34.430Z,24.93
2023-04-18T13:04:11.684Z,23.99
2023-04-18T13:06:40.442Z,24.04
2023-04-18T13:09:08.343Z,23.98
2023-04-18T13:11:36.606Z,24.42
2023-04-18T13:14:04.164Z,24.08
2023-04-18T13:16:31.916Z,24.22
2023-04-18T13:18:59.653Z,24.14
2023-04-18T13:21:27.628Z,24.06
2023-04-18T13:23:55.230Z,24.59
2023-04-18T13:26:22.683Z,24.17
2023-04-18T13:28:50.341Z,23.75
2023-04-18T13:31:17.712Z,23.51
2023-04-18T13:33:45.371Z,23.69
2023-04-18T13:36:12.665Z,23.52
2023-04-18T13:38:40.479Z,23.61
2023-04-18T13:41:12.865Z,23.43
2023-04-18T13:43:41.057Z,23.07
2023-04-18T13:46:08.690Z,22.95
2023-04-18T13:48:36.295Z,22.60
2023-04-18T13:51:03.628Z,22.48
2023-04-18T13:53:31.402Z,22.13
2023-04-18T13:55:59.358Z,22.19
2023-04-18T13:58:26.669Z,22.34
2023-04-18T14:00:54.077Z,22.57
2023-04-18T14:03:21.715Z,22.47
2023-04-18T14:05:49.457Z,22.05
2023-04-18T14:08:16.820Z,21.79
2023-04-18T14:10:44.346Z,21.79
2023-04-18T14:13:13.328Z,21.59
2023-04-18T14:15:40.714Z,21.62
2023-04-18T14:18:08.215Z,21.75
2023-04-18T14:20:36.306Z,21.86
2023-04-18T14:23:03.788Z,21.84
2023-04-18T14:25:31.104Z,21.71
2023-04-18T14:28:25.431Z,22.14
2023-04-18T14:30:55.536Z,22.19
2023-04-18T14:33:22.872Z,22.41
2023-04-18T14:35:50.653Z,22.59
2023-04-18T14:38:18.100Z,22.38
2023-04-18T14:40:45.722Z,22.31
2023-04-18T14:43:13.084Z,22.73
2023-04-18T14:45:40.618Z,22.71
2023-04-18T14:48:10.373Z,22.14
2023-04-18T14:50:38.743Z,22.34
2023-04-18T14:53:08.302Z,22.24
2023-04-18T14:55:35.699Z,22.10
2023-04-18T14:58:02.952Z,22.63
2023-04-18T15:00:31.130Z,22.54
2023-04-18T15:02:58.579Z,22.50
2023-04-18T15:05:26.630Z,22.61
2023-04-18T15:07:54.125Z,22.62
2023-04-18T15:10:22.665Z,22.80
2023-04-18T15:12:51.345Z,22.61
2023-04-18T15:15:19.625Z,22.60
2023-04-18T15:17:47.125Z,22.41
2023-04-18T15:20:14.759Z,22.67
2023-04-18T15:22:42.223Z,22.69
2023-04-18T15:25:09.856Z,22.74
2023-04-18T15:27:37.272Z,22.80
2023-04-18T15:30:05.123Z,22.65
2023-04-18T15:32:33.022Z,22.52
2023-04-18T15:35:00.612Z,22.23
2023-04-18T15:37:28.190Z,22.09
2023-04-18T15:39:57.119Z,22.27
2023-04-18T15:42:24.615Z,22.46
2023-04-18T15:44:52.634Z,22.32
2023-04-18T15:47:20.591Z,22.27
2023-04-18T15:49:48.200Z,22.21
2023-04-18T15:52:16.095Z,22.50
2023-04-18T15:54:44.210Z,22.28
2023-04-18T15:57:11.908Z,22.13
2023-04-18T15:59:39.515Z,22.23
2023-04-18T16:02:09.131Z,22.44
2023-04-18T16:04:37.215Z,22.22
2023-04-18T16:07:05.046Z,22.30
2023-04-18T16:09:32.728Z,22.15
2023-04-18T16:12:01.530Z,22.06
2023-04-18T16:14:30.705Z,22.01
2023-04-18T16:16:59.182Z,21.75
2023-04-18T16:19:26.802Z,21.62
2023-04-18T16:21:54.356Z,21.61
2023-04-18T16:24:21.752Z,21.63
2023-04-18T16:26:49.411Z,21.49
2023-04-18T16:29:16.743Z,21.45
2023-04-18T16:31:44.291Z,21.33
2023-04-18T16:34:11.842Z,21.35
2023-04-18T16:36:39.796Z,21.53
2023-04-18T16:39:07.240Z,21.46
2023-04-18T16:44:02.148Z,21.15
2023-04-18T16:46:32.654Z,21.15
2023-04-18T16:49:03.174Z,21.29
2023-04-18T16:51:31.466Z,21.33
2023-04-18T16:53:59.290Z,21.34
2023-04-18T16:56:26.752Z,21.07
2023-04-18T16:58:54.260Z,21.22
2023-04-18T17:01:21.957Z,21.30
2023-04-18T17:03:50.213Z,21.36
2023-04-18T17:06:19.569Z,21.30
2023-04-18T17:08:49.166Z,21.29
2023-04-18T17:11:16.730Z,21.11
2023-04-18T17:13:44.562Z,21.13
2023-04-18T17:16:12.014Z,20.77
2023-04-18T17:18:42.778Z,20.94
2023-04-18T17:21:19.935Z,20.90
2023-04-18T17:24:04.481Z,21.12
2023-04-18T17:26:39.184Z,20.98
2023-04-18T17:29:08.681Z,21.00
2023-04-18T17:31:37.173Z,21.03
2023-04-18T17:34:04.974Z,20.95
2023-04-18T17:36:34.697Z,20.95
2023-04-18T17:39:13.168Z,20.89
2023-04-18T17:41:41.529Z,20.91
2023-04-18T17:44:11.017Z,20.90
2023-04-18T17:46:42.588Z,20.79
2023-04-18T17:49:12.513Z,20.78
2023-04-18T17:51:41.019Z,20.72
2023-04-18T17:54:09.310Z,20.63
2023-04-18T17:56:38.958Z,20.70
2023-04-18T17:59:07.810Z,20.86
2023-04-18T18:01:35.724Z,20.78
2023-04-18T18:04:09.638Z,20.56
2023-04-18T18:06:37.376Z,20.62
2023-04-18T18:09:11.299Z,20.44
2023-04-18T18:11:41.080Z,20.40
2023-04-18T18:14:12.055Z,20.49
2023-04-18T18:16:40.503Z,20.70
2023-04-18T18:19:10.362Z,20.46
2023-04-18T18:21:41.401Z,20.64
2023-04-18T18:24:09.315Z,20.77
2023-04-18T18:26:38.045Z,20.33
2023-04-18T18:29:09.455Z,20.16
2023-04-18T18:31:37.478Z,20.21
2023-04-18T18:34:05.934Z,20.48
2023-04-18T18:36:33.572Z,20.24
2023-04-18T18:39:01.649Z,20.36
2023-04-18T18:41:28.947Z,20.45
2023-04-18T18:43:57.595Z,20.54
2023-04-18T18:46:27.108Z,20.47
2023-04-18T18:48:57.916Z,20.27
2023-04-18T18:51:28.417Z,20.31
2023-04-18T18:53:59.416Z,20.31
2023-04-18T18:56:30.245Z,20.52
2023-04-18T18:58:58.338Z,20.30
2023-04-18T19:01:26.228Z,20.48
2023-04-18T19:03:54.176Z,20.25
2023-04-18T19:06:21.912Z,19.91
2023-04-18T19:08:49.811Z,19.68
2023-04-18T19:11:23.561Z,19.71
2023-04-18T19:13:52.158Z,19.64
2023-04-18T19:16:20.024Z,19.40
2023-04-18T19:18:49.239Z,19.30
2023-04-18T19:21:17.041Z,19.35
2023-04-18T19:23:44.604Z,19.12
2023-04-18T19:26:12.231Z,18.81
2023-04-18T19:28:39.769Z,19.10
2023-04-18T19:31:07.258Z,19.25
2023-04-18T19:33:34.583Z,19.54
2023-04-18T19:36:02.296Z,19.18
2023-04-18T19:38:29.675Z,19.23
2023-04-18T19:40:57.142Z,19.28
2023-04-18T19:43:24.465Z,18.90
2023-04-18T19:45:54.532Z,19.31
2023-04-18T19:48:22.547Z,19.21
2023-04-18T19:50:50.264Z,19.47
2023-04-18T19:53:19.154Z,19.38
2023-04-18T19:55:46.788Z,19.12
2023-04-18T19:58:33.116Z,19.40
2023-04-18T20:01:00.929Z,19.39
2023-04-18T20:03:28.361Z,19.16
2023-04-18T20:05:56.089Z,18.87
2023-04-18T20:08:23.412Z,18.79
2023-04-18T20:10:50.806Z,18.93
2023-04-18T20:13:18.193Z,18.81
2023-04-18T20:15:45.516Z,18.72
2023-04-18T20:18:13.012Z,18.58
2023-04-18T20:20:41.090Z,18.63
2023-04-18T20:23:08.616Z,18.70
2023-04-18T20:25:36.110Z,18.98
2023-04-18T20:28:03.690Z,19.01
2023-04-18T20:30:31.115Z,18.80
2023-04-18T20:32:58.698Z,18.93
2023-04-18T20:35:28.055Z,18.87
2023-04-18T20:37:55.611Z,18.33
2023-04-18T20:40:22.956Z,18.39
2023-04-18T20:42:50.794Z,18.18
2023-04-18T20:45:18.319Z,18.14
2023-04-18T20:47:45.769Z,18.51
2023-04-18T20:50:14.230Z,18.47
2023-04-18T20:52:43.046Z,18.16
2023-04-18T20:55:10.982Z,18.21
2023-04-18T20:57:38.632Z,18.13
2023-04-18T21:00:07.387Z,18.56
2023-04-18T21:02:35.096Z,18.21
2023-04-18T21:05:02.821Z,18.09
2023-04-18T21:07:31.354Z,18.43
2023-04-18T21:09:59.147Z,18.34
2023-04-18T21:12:27.079Z,18.24
2023-04-18T21:14:54.467Z,18.06
2023-04-18T21:17:21.970Z,17.99
2023-04-18T21:19:49.649Z,18.08
2023-04-18T21:22:17.494Z,17.94
2023-04-18T21:24:45.381Z,17.90
2023-04-18T21:27:12.645Z,17.95
2023-04-18T21:29:41.093Z,18.00
2023-04-18T21:32:08.944Z,18.09
2023-04-18T21:34:36.671Z,18.04
2023-04-18T21:37:04.077Z,18.17
2023-04-18T21:39:31.503Z,17.78
2023-04-18T21:41:58.924Z,18.12
2023-04-18T21:44:26.457Z,17.94
2023-04-18T21:46:53.742Z,17.64
2023-04-18T21:49:21.100Z,17.86
2023-04-18T21:51:49.102Z,17.64
2023-04-18T21:54:16.612Z,17.62
2023-04-18T21:56:44.108Z,17.76
2023-04-18T21:59:11.648Z,17.56
2023-04-18T22:01:39.486Z,17.56
2023-04-18T22:04:07.285Z,17.57
2023-04-18T22:06:34.846Z,17.68
2023-04-18T22:09:02.238Z,17.65
2023-04-18T22:11:29.665Z,17.86
2023-04-18T22:13:58.293Z,17.88
2023-04-18T22:16:25.992Z,17.69
2023-04-18T22:18:54.112Z,18.06
2023-04-18T22:21:21.347Z,17.96
2023-04-18T22:23:48.618Z,17.85
2023-04-18T22:26:15.935Z,17.90
2023-04-18T22:28:43.244Z,17.72
2023-04-18T22:31:10.872Z,17.49
2023-04-18T22:33:38.581Z,17.65
2023-04-18T22:36:06.190Z,17.70
2023-04-18T22:38:33.456Z,17.73
2023-04-18T22:41:00.832Z,17.72
2023-04-18T22:43:28.379Z,17.60
2023-04-18T22:45:55.809Z,17.58
2023-04-18T22:48:23.738Z,17.76
2023-04-18T22:50:51.075Z,17.80
2023-04-18T22:53:18.406Z,17.81
2023-04-18T22:55:46.442Z,17.49
2023-04-18T22:58:14.398Z,17.43
2023-04-18T23:00:42.264Z,17.25
2023-04-18T23:03:09.979Z,17.27
2023-04-18T23:05:39.623Z,17.39
2023-04-18T23:08:07.447Z,17.36
2023-04-18T23:10:35.001Z,17.29
2023-04-18T23:13:02.387Z,17.38
2023-04-18T23:15:32.699Z,17.47
2023-04-18T23:18:00.619Z,17.55
2023-04-18T23:20:28.011Z,17.37
2023-04-18T23:22:56.172Z,17.35
2023-04-18T23:25:23.851Z,17.18
2023-04-18T23:27:51.308Z,17.06
2023-04-18T23:30:18.584Z,17.06
2023-04-18T23:32:45.929Z,17.00
2023-04-18T23:35:13.418Z,17.05
2023-04-18T23:37:42.228Z,17.06
2023-04-18T23:40:09.913Z,17.07
2023-04-18T23:42:37.325Z,17.20
2023-04-18T23:45:05.931Z,17.14
2023-04-18T23:47:34.627Z,17.13
2023-04-18T23:50:02.251Z,17.04
2023-04-18T23:52:30.423Z,17.04
2023-04-18T23:55:01.261Z,17.07
2023-04-18T23:57:28.674Z,17.14
2023-04-18T23:59:55.928Z,17.14
